createdAt,value
2023-05-14T05:30:37.005Z,9.20
2023-05-14T05:33:38.917Z,9.20
2023-05-14T05:36:40.689Z,9.20
2023-05-14T05:39:42.679Z,9.10
2023-05-14T05:42:44.414Z,9.10
2023-05-14T05:45:46.209Z,9.20
2023-05-14T05:48:47.852Z,9.20
2023-05-14T05:51:49.498Z,9.20
2023-05-14T05:54:51.347Z,9.20
2023-05-14T05:57:53.009Z,9.30
2023-05-14T06:00:55.193Z,9.40
2023-05-14T06:03:57.002Z,9.30
2023-05-14T06:06:58.716Z,9.40
2023-05-14T06:10:00.735Z,9.40
2023-05-14T06:13:02.388Z,9.50
2023-05-14T06:16:04.197Z,9.60
2023-05-14T06:19:08.374Z,9.70
2023-05-14T06:22:10.281Z,9.70
2023-05-14T06:25:12.088Z,9.70
2023-05-14T06:28:13.745Z,9.70
2023-05-14T06:31:15.584Z,9.70
2023-05-14T06:34:17.266Z,9.60
2023-05-14T06:37:18.945Z,9.70
2023-05-14T06:40:21.236Z,9.80
2023-05-14T06:43:23.066Z,9.80
2023-05-14T06:46:24.701Z,9.90
2023-05-14T06:50:09.450Z,10.00
2023-05-14T06:53:12.480Z,10.00
2023-05-14T06:56:14.722Z,9.90
2023-05-14T06:59:16.681Z,10.00
2023-05-14T07:02:18.348Z,10.10
2023-05-14T07:05:20.042Z,10.20
2023-05-14T07:08:21.731Z,10.30
2023-05-14T07:11:23.587Z,10.30
2023-05-14T07:14:25.346Z,10.20
2023-05-14T07:17:27.165Z,10.20
2023-05-14T07:20:29.185Z,10.20
2023-05-14T07:23:30.813Z,10.20
2023-05-14T07:26:32.555Z,10.20
2023-05-14T07:29:35.111Z,10.30
2023-05-14T07:32:36.848Z,10.40
2023-05-14T07:35:38.530Z,10.50
2023-05-14T07:38:40.445Z,10.50
2023-05-14T07:41:42.231Z,10.50
2023-05-14T07:44:43.884Z,10.40
2023-05-14T07:47:45.743Z,10.40
2023-05-14T07:50:49.350Z,10.50
2023-05-14T07:53:51.266Z,10.70
2023-05-14T07:56:52.946Z,11.00
2023-05-14T07:59:54.936Z,11.20
2023-05-14T08:02:56.899Z,11.40
2023-05-14T08:05:58.698Z,11.40
2023-05-14T08:09:00.725Z,11.50
2023-05-14T08:12:02.461Z,11.40
2023-05-14T08:15:04.610Z,11.50
2023-05-14T08:18:06.362Z,11.70
2023-05-14T08:21:09.169Z,11.90
2023-05-14T08:24:11.388Z,12.10
2023-05-14T08:27:13.081Z,12.20
2023-05-14T08:30:15.289Z,12.30
2023-05-14T08:33:18.100Z,12.30
2023-05-14T08:36:19.773Z,12.10
2023-05-14T08:39:21.607Z,12.30
2023-05-14T08:42:23.997Z,12.70
2023-05-14T08:45:33.992Z,13.10
2023-05-14T08:48:36.133Z,13.40
2023-05-14T08:51:38.940Z,13.30
2023-05-14T08:54:40.762Z,13.30
2023-05-14T08:57:42.493Z,13.40
2023-05-14T09:00:44.499Z,13.30
2023-05-14T09:03:46.207Z,13.30
2023-05-14T09:06:49.591Z,13.30
2023-05-14T09:09:55.793Z,13.70
2023-05-14T09:12:57.520Z,14.00
2023-05-14T09:15:59.254Z,14.40
2023-05-14T09:19:01.310Z,14.40
2023-05-14T09:22:02.996Z,13.90
2023-05-14T09:25:09.606Z,13.80
2023-05-14T09:28:11.438Z,13.90
2023-05-14T09:31:13.415Z,13.90
2023-05-14T09:34:33.924Z,14.10
2023-05-14T09:37:41.745Z,14.30
2023-05-14T09:40:43.714Z,14.30
2023-05-14T09:43:45.367Z,14.30
2023-05-14T09:46:47.380Z,14.40
2023-05-14T09:49:50.715Z,14.40
2023-05-14T09:52:54.356Z,14.50
2023-05-14T09:55:56.050Z,14.60
2023-05-14T09:58:59.022Z,14.70
2023-05-14T10:02:00.828Z,14.70
2023-05-14T10:05:04.098Z,14.90
2023-05-14T10:08:26.725Z,14.80
2023-05-14T10:11:32.417Z,14.70
2023-05-14T10:14:39.074Z,14.70
2023-05-14T10:17:41.531Z,14.90
2023-05-14T10:20:43.296Z,15.20
2023-05-14T10:23:45.053Z,15.30
2023-05-14T10:26:46.841Z,15.50
2023-05-14T10:29:54.664Z,15.60
2023-05-14T10:33:09.524Z,15.80
2023-05-14T10:36:11.241Z,15.80
2023-05-14T10:39:15.164Z,15.70
2023-05-14T10:42:21.774Z,15.80
2023-05-14T10:45:23.575Z,16.10
2023-05-14T10:48:25.478Z,16.20
2023-05-14T10:51:27.421Z,16.10
2023-05-14T10:54:29.253Z,16.00
2023-05-14T10:57:31.851Z,16.20
2023-05-14T11:00:34.817Z,16.40
2023-05-14T11:03:45.214Z,16.50
2023-05-14T11:06:47.432Z,16.70
2023-05-14T11:09:51.565Z,16.90
2023-05-14T11:12:53.245Z,17.00
2023-05-14T11:15:55.697Z,17.20
2023-05-14T11:19:04.538Z,17.20
2023-05-14T11:22:07.900Z,17.20
2023-05-14T11:25:10.087Z,17.30
2023-05-14T11:28:11.790Z,17.40
2023-05-14T11:31:13.482Z,17.40
2023-05-14T11:34:15.310Z,17.50
2023-05-14T11:37:17.068Z,17.60
2023-05-14T11:40:20.169Z,17.60
2023-05-14T11:43:23.803Z,17.80
2023-05-14T11:46:26.222Z,17.90
2023-05-14T11:49:29.230Z,18.00
2023-05-14T11:52:31.140Z,18.20
2023-05-14T11:55:36.177Z,18.30
2023-05-14T11:58:37.876Z,18.50
2023-05-14T12:01:40.818Z,18.50
2023-05-14T12:04:43.946Z,18.60
2023-05-14T12:07:46.269Z,18.70
2023-05-14T12:10:49.353Z,18.80
2023-05-14T12:13:51.186Z,18.80
2023-05-14T12:16:52.948Z,18.90
2023-05-14T12:19:57.001Z,19.00
2023-05-14T12:22:58.702Z,18.90
2023-05-14T12:26:07.684Z,18.80
2023-05-14T12:29:12.743Z,19.00
2023-05-14T12:32:14.686Z,19.10
2023-05-14T12:35:16.500Z,19.20
2023-05-14T12:38:18.192Z,19.20
2023-05-14T12:41:21.202Z,19.40
2023-05-14T12:44:22.818Z,19.50
2023-05-14T12:47:24.653Z,19.50
2023-05-14T12:50:27.001Z,19.60
2023-05-14T12:53:28.865Z,19.50
2023-05-14T12:56:32.027Z,19.50
2023-05-14T12:59:33.791Z,19.50
2023-05-14T13:02:42.914Z,19.50
2023-05-14T13:05:45.261Z,19.50
2023-05-14T13:08:47.057Z,19.70
2023-05-14T13:11:48.734Z,19.70
2023-05-14T13:14:50.729Z,19.90
2023-05-14T13:17:52.593Z,20.00
2023-05-14T13:20:56.659Z,20.10
2023-05-14T13:23:58.724Z,20.30
2023-05-14T13:27:00.657Z,20.40
2023-05-14T13:30:03.092Z,20.50
2023-05-14T13:33:05.440Z,20.50
2023-05-14T13:36:08.144Z,20.70
2023-05-14T13:39:14.308Z,20.80
2023-05-14T13:42:16.330Z,20.80
2023-05-14T13:45:18.289Z,20.80
2023-05-14T13:49:27.142Z,20.90
2023-05-14T13:52:25.052Z,20.80
2023-05-14T13:55:26.693Z,20.80
2023-05-14T13:58:28.481Z,21.00
2023-05-14T14:01:33.138Z,21.10
2023-05-14T14:04:34.896Z,21.30
2023-05-14T14:07:36.608Z,21.50
2023-05-14T14:10:40.794Z,21.70
2023-05-14T14:13:43.719Z,21.80
2023-05-14T14:16:46.723Z,21.70
2023-05-14T14:19:48.550Z,21.70
2023-05-14T14:22:50.214Z,21.90
2023-05-14T14:25:51.886Z,22.00
2023-05-14T14:28:54.019Z,21.90
2023-05-14T14:31:55.923Z,21.90
2023-05-14T14:34:57.660Z,21.80
2023-05-14T14:37:59.325Z,22.00
2023-05-14T14:41:03.188Z,22.10
2023-05-14T14:44:05.510Z,22.20
2023-05-14T14:47:07.240Z,22.20
2023-05-14T14:50:09.311Z,22.30
2023-05-14T14:53:12.101Z,22.20
2023-05-14T14:56:13.754Z,22.30
2023-05-14T14:59:15.591Z,22.20
2023-05-14T15:02:17.296Z,22.10
2023-05-14T15:05:19.051Z,21.90
2023-05-14T15:08:24.017Z,21.70
2023-05-14T15:11:26.053Z,21.80
2023-05-14T15:14:27.742Z,21.90
2023-05-14T15:17:29.448Z,22.10
2023-05-14T15:20:31.452Z,22.30
2023-05-14T15:23:33.089Z,22.50
2023-05-14T15:26:34.824Z,22.50
2023-05-14T15:29:36.689Z,22.50
2023-05-14T15:32:38.402Z,22.50
2023-05-14T15:35:40.144Z,22.60
2023-05-14T15:38:42.420Z,22.70
2023-05-14T15:41:44.173Z,22.70
2023-05-14T15:44:46.467Z,22.60
2023-05-14T15:47:48.266Z,22.50
2023-05-14T15:50:50.115Z,22.30
2023-05-14T15:53:54.046Z,22.30
2023-05-14T15:56:56.452Z,22.40
2023-05-14T15:59:58.527Z,22.30
2023-05-14T16:03:00.417Z,22.30
2023-05-14T16:06:02.197Z,22.40
2023-05-14T16:09:04.721Z,22.50
2023-05-14T16:12:07.025Z,22.40
2023-05-14T16:15:09.190Z,22.20
2023-05-14T16:18:10.963Z,22.60
2023-05-14T16:21:13.273Z,23.30
2023-05-14T16:24:14.930Z,23.90
2023-05-14T16:27:18.827Z,24.20
2023-05-14T16:30:20.497Z,24.00
2023-05-14T16:33:22.162Z,23.90
2023-05-14T16:36:27.055Z,23.60
2023-05-14T16:39:30.069Z,23.40
2023-05-14T16:42:31.730Z,23.10
2023-05-14T16:45:34.850Z,22.90
2023-05-14T16:48:36.530Z,22.80
2023-05-14T16:51:42.936Z,22.60
2023-05-14T16:54:44.591Z,22.30
2023-05-14T16:57:46.285Z,22.20
2023-05-14T17:00:48.251Z,22.10
2023-05-14T17:03:49.896Z,22.10
2023-05-14T17:06:51.606Z,22.00
2023-05-14T17:09:58.014Z,21.90
2023-05-14T17:13:00.154Z,21.60
2023-05-14T17:16:02.075Z,21.50
2023-05-14T17:19:04.718Z,21.30
2023-05-14T17:22:07.263Z,21.10
2023-05-14T17:25:09.429Z,21.00
2023-05-14T17:28:11.105Z,20.90
2023-05-14T17:31:12.793Z,20.80
2023-05-14T17:34:14.477Z,20.70
2023-05-14T17:37:16.415Z,20.60
2023-05-14T17:40:18.420Z,20.60
2023-05-14T17:43:20.155Z,20.60
2023-05-14T17:46:21.850Z,20.50
2023-05-14T17:49:23.625Z,20.50
2023-05-14T17:52:25.318Z,20.40
2023-05-14T17:55:26.990Z,20.30
2023-05-14T17:58:28.706Z,20.20
2023-05-14T18:01:30.938Z,20.00
2023-05-14T18:04:32.733Z,20.00
2023-05-14T18:07:35.193Z,19.90
2023-05-14T18:10:37.422Z,19.80
2023-05-14T18:13:39.086Z,19.70
2023-05-14T18:16:41.077Z,19.50
2023-05-14T18:19:43.069Z,19.40
2023-05-14T18:22:44.745Z,19.30
2023-05-14T18:25:49.629Z,19.20
2023-05-14T18:28:51.495Z,19.10
2023-05-14T18:31:53.161Z,19.00
2023-05-14T18:34:54.896Z,18.90
2023-05-14T18:37:56.540Z,18.80
2023-05-14T18:40:58.496Z,18.70
2023-05-14T18:44:01.687Z,18.60
2023-05-14T18:47:03.492Z,18.60
2023-05-14T18:50:08.988Z,18.50
2023-05-14T18:53:10.681Z,18.40
2023-05-14T18:56:12.534Z,18.30
2023-05-14T18:59:14.316Z,18.10
2023-05-14T19:02:16.191Z,18.00
2023-05-14T19:05:18.077Z,17.90
2023-05-14T19:08:19.773Z,17.80
2023-05-14T19:11:21.935Z,17.60
2023-05-14T19:14:23.682Z,17.50
2023-05-14T19:17:25.526Z,17.40
2023-05-14T19:20:27.459Z,17.30
2023-05-14T19:23:31.066Z,17.30
2023-05-14T19:26:32.775Z,17.20
2023-05-14T19:29:36.736Z,17.20
2023-05-14T19:32:38.506Z,17.20
2023-05-14T19:35:40.188Z,17.10
2023-05-14T19:38:41.954Z,17.00
2023-05-14T19:41:45.851Z,17.00
2023-05-14T19:44:47.517Z,16.90
2023-05-14T19:47:49.237Z,16.80
2023-05-14T19:50:51.870Z,16.70
2023-05-14T19:53:53.551Z,16.70
2023-05-14T19:56:55.202Z,16.60
2023-05-14T19:59:56.919Z,16.50
2023-05-14T20:02:59.531Z,16.50
2023-05-14T20:06:01.854Z,16.40
2023-05-14T20:09:05.829Z,16.40
2023-05-14T20:12:07.992Z,16.40
2023-05-14T20:15:10.131Z,16.30
2023-05-14T20:18:11.873Z,16.20
2023-05-14T20:21:13.697Z,16.20
2023-05-14T20:24:15.421Z,16.20
2023-05-14T20:27:17.113Z,16.20
2023-05-14T20:30:19.425Z,16.20
2023-05-14T20:33:21.936Z,16.10
2023-05-14T20:36:24.312Z,16.10
2023-05-14T20:39:26.351Z,16.10
2023-05-14T20:42:28.119Z,16.10
2023-05-14T20:45:29.926Z,16.10
2023-05-14T20:48:31.561Z,16.10
2023-05-14T20:51:33.533Z,16.10
2023-05-14T20:54:35.200Z,16.10
2023-05-14T20:57:37.115Z,16.10
2023-05-14T21:00:39.237Z,16.00
2023-05-14T21:03:41.033Z,16.00
2023-05-14T21:06:42.859Z,16.00
2023-05-14T21:09:46.506Z,16.00
2023-05-14T21:12:48.296Z,16.00
2023-05-14T21:15:50.027Z,16.00
2023-05-14T21:18:51.783Z,16.00
2023-05-14T21:21:53.472Z,16.00
2023-05-14T21:24:55.606Z,15.90
2023-05-14T21:27:57.269Z,15.90
2023-05-14T21:30:59.053Z,15.90
2023-05-14T21:34:00.808Z,15.90
2023-05-14T21:37:02.444Z,15.80
